Time;durP1;ratioP1;P1;durP2;ratioP2;P2;SDS_P1;SDS_P2;PMS_P1;PMS_P2;Temp;Humidity;BMP_temperature;BMP_pressure;BME280_temperature;BME280_humidity;BME280_pressure;Samples;Min_cycle;Max_cycle;Signal;HPM_P1;HPM_P2
2022/11/13 00:00:28;;;;;;;60.77;35.63;;;;;;;10.78;100.00;102180.82;3612545;80;26185;-94
2022/11/13 00:05:29;;;;;;;63.70;37.83;;;;;;;10.79;100.00;102164.55;3605191;80;98967;-93
2022/11/13 00:10:30;;;;;;;56.67;34.97;;;;;;;10.77;100.00;102165.45;3602370;82;25878;-93
2022/11/13 00:15:31;;;;;;;62.97;37.53;;;;;;;10.76;100.00;102164.66;3600674;80;99238;-94
2022/11/13 00:20:31;;;;;;;55.45;34.25;;;;;;;10.79;100.00;102153.55;3584629;81;26359;-94
2022/11/13 00:25:34;;;;;;;50.00;31.53;;;;;;;10.79;100.00;102144.69;3525002;82;99294;-93
2022/11/13 00:30:35;;;;;;;51.63;32.55;;;;;;;10.77;100.00;102141.48;3578444;81;26579;-93
2022/11/13 00:35:36;;;;;;;51.08;31.20;;;;;;;10.77;100.00;102144.79;3569457;81;99146;-93
2022/11/13 00:40:37;;;;;;;42.27;27.77;;;;;;;10.78;100.00;102143.64;3594945;81;32926;-94
2022/11/13 00:45:37;;;;;;;49.57;30.07;;;;;;;10.79;100.00;102152.16;3576670;81;99214;-93
2022/11/13 00:50:38;;;;;;;38.40;23.93;;;;;;;10.77;100.00;102144.79;3553462;81;32930;-93
2022/11/13 00:55:39;;;;;;;41.77;26.07;;;;;;;10.78;100.00;102141.70;3572169;81;98799;-93
2022/11/13 01:00:43;;;;;;;35.03;23.22;;;;;;;10.78;100.00;102139.51;3600583;81;33495;-94
2022/11/13 01:05:45;;;;;;;41.23;26.20;;;;;;;10.75;100.00;102134.10;3595706;82;99275;-93
2022/11/13 01:10:48;;;;;;;38.35;23.75;;;;;;;10.76;100.00;102120.59;3602779;81;32967;-93
2022/11/13 01:15:49;;;;;;;39.42;25.12;;;;;;;10.78;100.00;102122.98;3611859;81;99057;-93
2022/11/13 01:20:50;;;;;;;42.60;28.00;;;;;;;10.78;100.00;102114.72;3614331;81;31582;-93
2022/11/13 01:25:51;;;;;;;47.13;27.23;;;;;;;10.76;100.00;102110.95;3610076;81;98966;-94
2022/11/13 01:30:51;;;;;;;43.47;26.13;;;;;;;10.75;100.00;102110.69;3613963;81;31612;-94
2022/11/13 01:35:52;;;;;;;38.27;25.00;;;;;;;10.74;100.00;102106.92;3612632;81;99460;-93
2022/11/13 01:40:53;;;;;;;40.73;25.47;;;;;;;10.74;100.00;102109.67;3587125;81;31698;-94
2022/11/13 01:46:02;;;;;;;43.40;25.53;;;;;;;10.70;100.00;102108.17;3604380;80;99405;-93
2022/11/13 01:51:11;;;;;;;41.08;26.55;;;;;;;10.72;100.00;102103.68;3615761;81;32926;-93
2022/11/13 01:56:14;;;;;;;40.13;25.57;;;;;;;10.69;100.00;102114.02;3609875;80;99329;-92
2022/11/13 02:01:14;;;;;;;37.88;23.57;;;;;;;10.72;100.00;102107.81;3616594;81;32969;-94
2022/11/13 02:06:15;;;;;;;38.60;24.40;;;;;;;10.74;100.00;102107.70;3604568;81;99377;-93
2022/11/13 02:11:17;;;;;;;38.20;24.93;;;;;;;10.75;100.00;102101.64;3612920;81;31709;-94
2022/11/13 02:16:20;;;;;;;38.10;24.47;;;;;;;10.73;100.00;102090.95;3603517;81;99575;-93
2022/11/13 02:21:30;;;;;;;38.38;23.67;;;;;;;10.77;100.00;102095.21;3610706;81;32961;-94
2022/11/13 02:26:32;;;;;;;34.73;22.77;;;;;;;10.75;100.00;102096.13;3600006;81;99101;-93
2022/11/13 02:31:32;;;;;;;39.80;25.75;;;;;;;10.74;100.00;102090.40;3601906;82;32977;-94
2022/11/13 02:36:35;;;;;;;44.40;28.93;;;;;;;10.75;100.00;102079.61;3590990;81;99222;-94
2022/11/13 02:41:37;;;;;;;46.35;27.98;;;;;;;10.75;100.00;102081.77;3605135;81;32921;-94
2022/11/13 02:46:38;;;;;;;42.08;25.32;;;;;;;10.76;100.00;102082.03;3604376;81;99308;-93
2022/11/13 02:51:38;;;;;;;43.37;25.53;;;;;;;10.78;100.00;102073.41;3605994;81;32616;-93
2022/11/13 02:56:39;;;;;;;38.95;24.82;;;;;;;10.75;100.00;102070.76;3601188;81;99198;-94
2022/11/13 03:01:40;;;;;;;41.77;24.27;;;;;;;10.73;100.00;102075.81;3610002;81;31637;-94
2022/11/13 03:06:41;;;;;;;36.10;23.90;;;;;;;10.71;100.00;102075.35;3603040;81;99101;-93
2022/11/13 03:11:43;;;;;;;37.10;23.90;;;;;;;10.71;100.00;102073.98;3605376;81;31597;-94
2022/11/13 03:16:43;;;;;;;31.37;19.97;;;;;;;10.72;100.00;102078.90;3594125;81;99080;-94
2022/11/13 03:21:44;;;;;;;32.10;20.40;;;;;;;10.73;100.00;102067.55;3606301;81;31647;-94
2022/11/13 03:26:46;;;;;;;39.83;23.57;;;;;;;10.72;100.00;102065.13;3601459;81;98902;-93
2022/11/13 03:31:47;;;;;;;36.50;23.67;;;;;;;10.70;100.00;102066.05;3603907;82;31630;-94
2022/11/13 03:36:47;;;;;;;35.80;22.48;;;;;;;10.71;100.00;102063.52;3597668;81;98873;-94
2022/11/13 03:41:48;;;;;;;39.20;22.80;;;;;;;10.71;100.00;102068.47;3604341;81;25793;-93
2022/11/13 03:46:49;;;;;;;35.63;22.27;;;;;;;10.72;100.00;102077.52;3599818;81;99081;-93
2022/11/13 03:51:49;;;;;;;38.80;21.43;;;;;;;10.70;100.00;102076.50;3607644;81;34955;-94
2022/11/13 03:56:50;;;;;;;34.17;19.97;;;;;;;10.71;100.00;102071.78;3600295;81;99293;-92
2022/11/13 04:01:51;;;;;;;28.30;15.93;;;;;;;10.71;100.00;102067.09;3609044;81;34892;-94
2022/11/13 04:06:52;;;;;;;25.33;14.40;;;;;;;10.71;100.00;102064.89;3598510;81;100448;-94
2022/11/13 04:11:52;;;;;;;25.17;14.33;;;;;;;10.70;100.00;102061.92;3608219;81;34884;-94
2022/11/13 04:16:53;;;;;;;25.97;15.07;;;;;;;10.64;100.00;102050.29;3600711;81;99141;-95
2022/11/13 04:21:54;;;;;;;26.07;15.80;;;;;;;10.64;100.00;102057.77;3607268;81;27680;-93
2022/11/13 04:26:55;;;;;;;29.00;16.73;;;;;;;10.63;100.00;102058.32;3596940;81;98957;-94
2022/11/13 04:31:55;;;;;;;30.20;18.30;;;;;;;10.62;100.00;102053.14;3589079;81;32410;-92
2022/11/13 04:36:56;;;;;;;31.63;17.67;;;;;;;10.65;100.00;102051.11;3603607;81;99144;-93
2022/11/13 04:47:16;;;;;;;30.12;18.65;;;;;;;10.66;100.00;102054.91;3603834;81;98920;-93
2022/11/13 04:52:16;;;;;;;30.47;19.60;;;;;;;10.65;100.00;102053.86;3607621;81;27080;-94
2022/11/13 04:57:17;;;;;;;34.13;19.73;;;;;;;10.65;100.00;102045.60;3605367;81;99159;-93
2022/11/13 05:02:18;;;;;;;35.47;20.53;;;;;;;10.64;100.00;102051.66;3611204;80;32369;-94
2022/11/13 05:07:19;;;;;;;37.17;19.93;;;;;;;10.60;100.00;102051.31;3600468;81;99210;-93
2022/11/13 05:12:20;;;;;;;35.57;21.03;;;;;;;10.55;100.00;102041.88;3603133;81;32848;-94
2022/11/13 05:17:22;;;;;;;33.50;21.30;;;;;;;10.52;100.00;102053.00;3539391;82;99205;-93
2022/11/13 05:22:22;;;;;;;34.00;20.47;;;;;;;10.53;100.00;102057.95;3566606;82;33091;-93
2022/11/13 05:27:23;;;;;;;34.57;20.73;;;;;;;10.50;100.00;102058.05;3546948;82;99228;-93
2022/11/13 05:32:24;;;;;;;37.20;21.50;;;;;;;10.47;100.00;102044.94;3550125;81;32710;-93
2022/11/13 05:37:25;;;;;;;34.97;20.53;;;;;;;10.47;100.00;102055.16;3530938;81;99126;-94
2022/11/13 05:42:25;;;;;;;32.37;19.27;;;;;;;10.44;100.00;102055.27;3543846;82;26240;-92
2022/11/13 05:47:26;;;;;;;29.87;17.53;;;;;;;10.44;100.00;102047.57;3497176;82;99001;-93
2022/11/13 05:52:27;;;;;;;28.77;16.87;;;;;;;10.39;100.00;102045.84;3467464;83;26323;-93
2022/11/13 05:57:28;;;;;;;32.17;17.80;;;;;;;10.35;100.00;102054.52;3535478;82;99435;-94
2022/11/13 06:02:28;;;;;;;30.10;17.73;;;;;;;10.32;100.00;102057.14;3556114;81;26464;-94
2022/11/13 06:07:29;;;;;;;33.13;16.85;;;;;;;10.33;100.00;102053.25;3546608;82;99400;-94
2022/11/13 06:12:30;;;;;;;28.03;17.30;;;;;;;10.33;100.00;102053.25;3560949;81;33234;-93
2022/11/13 06:17:31;;;;;;;31.90;18.03;;;;;;;10.31;100.00;102054.95;3607126;81;99290;-93
2022/11/13 06:22:32;;;;;;;31.27;18.00;;;;;;;10.29;100.00;102056.42;3612965;81;33345;-92
2022/11/13 06:27:32;;;;;;;25.83;16.50;;;;;;;10.27;100.00;102047.71;3606303;81;99195;-92
2022/11/13 06:32:33;;;;;;;26.67;15.73;;;;;;;10.25;100.00;102045.28;3613262;80;33235;-93
2022/11/13 06:37:34;;;;;;;29.93;17.43;;;;;;;10.25;100.00;102048.62;3598093;80;98853;-92
2022/11/13 06:42:35;;;;;;;30.00;18.07;;;;;;;10.23;100.00;102054.45;3611743;81;34458;-92
2022/11/13 06:47:36;;;;;;;32.68;18.82;;;;;;;10.23;100.00;102046.77;3558442;81;99246;-92
2022/11/13 06:52:36;;;;;;;31.80;18.87;;;;;;;10.20;100.00;102055.12;3559935;81;32267;-92
2022/11/13 06:57:37;;;;;;;38.10;20.70;;;;;;;10.19;100.00;102045.84;3584600;81;99380;-92
2022/11/13 07:02:38;;;;;;;31.47;19.43;;;;;;;10.20;100.00;102046.08;3715702;79;31615;-92
2022/11/13 07:07:39;;;;;;;32.90;18.90;;;;;;;10.21;100.00;102048.50;3661190;79;99285;-92
2022/11/13 07:12:40;;;;;;;29.73;17.13;;;;;;;10.21;100.00;102040.80;3675012;78;31625;-92
2022/11/13 07:17:41;;;;;;;30.67;17.83;;;;;;;10.20;100.00;102039.98;3669213;79;99323;-92
2022/11/13 07:22:42;;;;;;;31.43;18.43;;;;;;;10.18;100.00;102042.28;3673755;79;31745;-92
2022/11/13 07:27:46;;;;;;;32.77;18.13;;;;;;;10.16;100.00;102043.75;3711982;79;99217;-92
2022/11/13 07:32:47;;;;;;;31.30;17.70;;;;;;;10.18;100.00;102049.16;3720766;79;31594;-91
2022/11/13 07:37:47;;;;;;;33.07;18.27;;;;;;;10.18;100.00;102045.02;3713368;78;98851;-91
2022/11/13 07:43:00;;;;;;;31.33;17.20;;;;;;;10.20;100.00;102048.23;3725918;79;32158;-90
2022/11/13 07:48:02;;;;;;;30.80;17.32;;;;;;;10.23;100.00;102048.14;3719554;79;99229;-92
2022/11/13 07:53:07;;;;;;;34.95;17.15;;;;;;;10.24;100.00;102055.28;3722847;79;33213;-92
2022/11/13 07:58:09;;;;;;;27.15;15.38;;;;;;;10.23;100.00;102061.89;3719816;79;99180;-93
2022/11/13 08:03:13;;;;;;;26.87;14.75;;;;;;;10.23;100.00;102065.47;3722120;79;33244;-92
2022/11/13 08:08:14;;;;;;;30.92;16.73;;;;;;;10.27;100.00;102068.35;3714728;79;99040;-92
2022/11/13 08:13:15;;;;;;;29.73;16.70;;;;;;;10.28;100.00;102068.02;3725875;79;32042;-91
2022/11/13 08:18:16;;;;;;;28.20;16.00;;;;;;;10.22;100.00;102065.23;3723425;79;98526;-91
2022/11/13 08:23:17;;;;;;;27.47;15.93;;;;;;;10.24;100.00;102065.70;3719667;79;31607;-91
2022/11/13 08:28:18;;;;;;;28.97;16.60;;;;;;;10.26;100.00;102064.78;3715844;79;99116;-91
2022/11/13 08:33:18;;;;;;;27.13;15.83;;;;;;;10.33;100.00;102062.88;3705413;79;31571;-91
2022/11/13 08:38:20;;;;;;;25.17;15.33;;;;;;;10.35;100.00;102060.61;3714465;78;99071;-90
2022/11/13 08:43:20;;;;;;;22.87;12.60;;;;;;;10.39;100.00;102061.53;3722074;79;31548;-92
2022/11/13 08:48:23;;;;;;;19.63;11.07;;;;;;;10.39;100.00;102054.09;3719743;79;99105;-90
2022/11/13 08:53:25;;;;;;;18.30;10.40;;;;;;;10.40;100.00;102055.70;3713375;78;99577;-89
2022/11/13 08:58:25;;;;;;;24.23;11.90;;;;;;;10.34;100.00;102054.30;3724914;79;32527;-91
2022/11/13 09:03:26;;;;;;;17.53;9.90;;;;;;;10.33;100.00;102054.63;3718483;78;99384;-90
2022/11/13 09:08:30;;;;;;;16.70;8.83;;;;;;;10.34;100.00;102060.35;3713868;78;32234;-91
2022/11/13 09:13:33;;;;;;;19.07;10.47;;;;;;;10.37;100.00;102067.95;3716889;78;99181;-90
2022/11/13 09:18:34;;;;;;;20.20;10.43;;;;;;;10.31;100.00;102063.80;3722014;78;33187;-88
2022/11/13 09:23:35;;;;;;;19.17;10.60;;;;;;;10.32;100.00;102066.77;3716492;79;99577;-87
2022/11/13 09:28:36;;;;;;;20.13;11.07;;;;;;;10.36;100.00;102058.09;3616584;80;31718;-89
2022/11/13 09:33:36;;;;;;;15.27;8.47;;;;;;;10.39;100.00;102058.78;3602742;81;99341;-89
2022/11/13 09:38:38;;;;;;;19.77;13.47;;;;;;;10.38;100.00;102059.37;3617582;80;32257;-89
2022/11/13 09:43:54;;;;;;;37.53;22.23;;;;;;;10.36;100.00;102062.22;3605747;80;99411;-89
2022/11/13 09:49:09;;;;;;;59.88;33.48;;;;;;;10.37;100.00;102065.98;3608522;80;32818;-90
2022/11/13 09:54:16;;;;;;;62.13;22.82;;;;;;;10.27;100.00;102056.78;3579974;81;99643;-90
2022/11/13 09:59:37;;;;;;;48.50;18.60;;;;;;;10.23;100.00;102050.89;3608013;82;26026;-91
2022/11/13 10:04:50;;;;;;;54.23;24.75;;;;;;;10.19;100.00;102049.38;3603204;81;99425;-90
2022/11/13 10:10:21;;;;;;;55.58;19.67;;;;;;;10.21;100.00;102036.12;3603338;82;33520;-91
2022/11/13 10:15:22;;;;;;;15.05;6.80;;;;;;;10.23;100.00;102031.62;3596128;81;99630;-90
2022/11/13 10:20:28;;;;;;;51.80;20.40;;;;;;;10.20;100.00;102026.22;3616377;80;32141;-87
2022/11/13 10:25:32;;;;;;;;;;;;;;;10.22;100.00;102026.72;3602796;81;99544;-90
2022/11/13 10:30:33;;;;;;;14.28;5.72;;;;;;;10.22;100.00;102022.59;3608105;82;33545;-90
2022/11/13 10:36:08;;;;;;;13.40;5.33;;;;;;;10.21;100.00;102016.03;3611236;80;99223;-90
2022/11/13 10:41:14;;;;;;;19.37;7.05;;;;;;;10.19;100.00;102012.83;3605605;81;32564;-90
2022/11/13 10:46:23;;;;;;;23.83;13.48;;;;;;;10.11;100.00;102015.06;3540063;82;99063;-89
2022/11/13 10:51:30;;;;;;;15.15;7.28;;;;;;;10.07;100.00;102003.11;3610383;80;33299;-92
2022/11/13 10:56:34;;;;;;;13.25;6.85;;;;;;;10.05;100.00;101992.46;3598794;81;99165;-91
2022/11/13 11:01:35;;;;;;;14.85;6.65;;;;;;;10.01;100.00;101985.98;3609639;81;33074;-91
2022/11/13 11:06:39;;;;;;;21.33;11.10;;;;;;;10.01;100.00;101983.79;3594476;80;99091;-89
2022/11/13 11:17:01;;;;;;;17.85;8.05;;;;;;;9.93;100.00;101982.70;3588260;81;98893;-90
2022/11/13 11:22:18;;;;;;;22.17;10.68;;;;;;;9.88;100.00;101984.87;3598131;80;32116;-90
2022/11/13 11:27:46;;;;;;;18.42;9.03;;;;;;;9.85;100.00;101985.52;3595377;81;99082;-88
2022/11/13 11:32:52;;;;;;;24.70;11.88;;;;;;;9.87;100.00;101980.52;3601687;80;33105;-88
2022/11/13 11:38:17;;;;;;;21.82;11.25;;;;;;;9.86;100.00;101969.28;3537470;82;98757;-87
2022/11/13 11:43:35;;;;;;;22.17;12.53;;;;;;;9.84;100.00;101968.23;3533681;82;31377;-88
2022/11/13 11:48:36;;;;;;;20.95;12.40;;;;;;;9.83;100.00;101971.31;3537818;83;33255;-87
2022/11/13 11:54:22;;;;;;;22.10;12.63;;;;;;;9.80;100.00;101968.66;3510652;84;99164;-87
2022/11/13 11:59:57;;;;;;;27.20;11.68;;;;;;;9.78;100.00;101964.64;3561284;81;33765;-88
2022/11/13 12:05:24;;;;;;;22.00;11.38;;;;;;;9.72;100.00;101953.60;3549025;81;98941;-89
2022/11/13 12:10:57;;;;;;;24.40;12.83;;;;;;;9.66;100.00;101944.73;3534764;81;30500;-88
2022/11/13 12:16:18;;;;;;;40.48;17.12;;;;;;;9.64;100.00;101951.70;3549214;81;99117;-89
2022/11/13 12:21:36;;;;;;;27.93;12.78;;;;;;;9.62;100.00;101952.06;3535026;81;33728;-89
2022/11/13 12:26:58;;;;;;;31.00;16.50;;;;;;;9.56;100.00;101931.96;3545824;81;98747;-90
2022/11/13 12:32:36;;;;;;;28.17;14.43;;;;;;;9.55;100.00;101933.89;3563711;81;30419;-90
2022/11/13 12:37:54;;;;;;;24.55;14.20;;;;;;;9.49;100.00;101921.48;3545794;81;98834;-86
2022/11/13 12:43:32;;;;;;;32.37;17.40;;;;;;;9.43;100.00;101920.66;3552464;82;29738;-88
2022/11/13 12:48:40;;;;;;;34.58;17.57;;;;;;;9.36;100.00;101923.11;3550613;82;32146;-88
2022/11/13 12:53:53;;;;;;;39.63;19.65;;;;;;;9.34;100.00;101924.84;3549167;82;99201;-88
2022/11/13 12:59:19;;;;;;;41.90;20.23;;;;;;;9.31;100.00;101930.98;3595821;81;33245;-90
2022/11/13 13:04:40;;;;;;;42.98;22.65;;;;;;;9.24;100.00;101925.22;3589388;82;98905;-89
2022/11/13 13:10:09;;;;;;;45.50;21.93;;;;;;;9.17;100.00;101926.88;3599073;82;30045;-89
2022/11/13 13:15:36;;;;;;;48.23;23.53;;;;;;;9.16;100.00;101917.81;3564725;81;98706;-88
2022/11/13 13:20:41;;;;;;;53.50;24.75;;;;;;;9.14;100.00;101909.11;3615984;80;26453;-88
2022/11/13 13:25:42;;;;;;;49.00;21.87;;;;;;;9.04;100.00;101910.03;3612534;80;98910;-88
2022/11/13 13:31:15;;;;;;;52.93;27.43;;;;;;;9.01;100.00;101907.97;3606464;80;32270;-90
2022/11/13 13:36:44;;;;;;;55.92;25.65;;;;;;;8.97;100.00;101910.57;3606954;81;99086;-90
2022/11/13 13:42:11;;;;;;;51.65;24.25;;;;;;;8.98;100.00;101914.92;3605575;80;33290;-90
2022/11/13 13:47:37;;;;;;;42.40;20.97;;;;;;;8.92;100.00;101905.27;3591488;82;99010;-90
2022/11/13 13:52:39;;;;;;;46.70;23.27;;;;;;;8.75;100.00;101903.97;3603554;82;26035;-89
2022/11/13 13:57:41;;;;;;;47.15;23.45;;;;;;;8.72;100.00;101902.45;3598646;81;99031;-89
2022/11/13 14:02:49;;;;;;;91.92;52.60;;;;;;;8.71;100.00;101915.36;3618770;81;33204;-89
2022/11/13 14:07:50;;;;;;;189.72;108.72;;;;;;;8.65;100.00;101907.06;3602939;80;98906;-90
2022/11/13 14:12:51;;;;;;;56.87;27.80;;;;;;;8.66;100.00;101894.95;3596372;80;100769;-90
2022/11/13 14:18:07;;;;;;;47.77;22.67;;;;;;;8.69;100.00;101897.60;3596116;80;100490;-89
2022/11/13 14:23:16;;;;;;;49.20;24.00;;;;;;;8.69;100.00;101892.11;3609762;80;99305;-89
2022/11/13 14:28:34;;;;;;;50.98;26.40;;;;;;;8.60;100.00;101891.33;3606626;81;33108;-89
2022/11/13 14:33:46;;;;;;;65.70;30.30;;;;;;;8.60;100.00;101886.66;3544574;82;99043;-89
2022/11/13 14:38:48;;;;;;;79.37;38.43;;;;;;;8.49;100.00;101882.66;3605267;80;31615;-88
2022/11/13 14:43:51;;;;;;;77.53;36.68;;;;;;;8.40;100.00;101871.48;3610691;80;98526;-90
2022/11/13 14:48:54;;;;;;;63.08;31.37;;;;;;;8.36;100.00;101874.08;3617620;81;33729;-89
2022/11/13 14:54:00;;;;;;;62.70;29.37;;;;;;;8.33;100.00;101878.02;3611370;80;98402;-90
2022/11/13 14:59:10;;;;;;;;;;;;;;;8.29;100.00;101873.75;3612940;81;25844;-91
2022/11/13 15:04:11;;;;;;;71.70;30.52;;;;;;;8.29;100.00;101871.59;3605541;81;84575;-89
2022/11/13 15:09:16;;;;;;;75.83;32.70;;;;;;;8.22;100.00;101867.97;3604210;80;32152;-89
2022/11/13 15:14:19;;;;;;;57.83;25.70;;;;;;;8.20;100.00;101868.05;3598599;82;98724;-90
2022/11/13 15:19:33;;;;;;;62.13;27.55;;;;;;;8.11;100.00;101866.67;3605849;80;33343;-89
2022/11/13 15:24:33;;;;;;;65.32;29.27;;;;;;;8.08;100.00;101860.45;3676324;79;98843;-83
2022/11/13 15:29:34;;;;;;;78.37;35.43;;;;;;;8.00;100.00;101863.21;3696377;78;31569;-83
2022/11/13 15:34:35;;;;;;;68.73;29.00;;;;;;;7.95;100.00;101857.34;3687840;79;98858;-83
2022/11/13 15:39:36;;;;;;;73.37;30.70;;;;;;;7.86;100.00;101846.94;3686126;79;32120;-84
2022/11/13 15:44:37;;;;;;;72.43;33.53;;;;;;;7.85;100.00;101843.18;3685276;79;99016;-90
2022/11/13 15:49:38;;;;;;;63.60;28.43;;;;;;;7.86;100.00;101848.31;3689548;78;32249;-92
2022/11/13 15:54:39;;;;;;;68.20;26.77;;;;;;;7.82;100.00;101841.89;3691130;79;98842;-92
2022/11/13 15:59:40;;;;;;;76.07;29.57;;;;;;;7.82;100.00;101833.67;3698528;78;31592;-90
2022/11/13 16:04:41;;;;;;;79.86;35.68;;;;;;;7.85;100.00;101837.11;3686543;78;98675;-89
2022/11/13 16:09:44;;;;;;;64.53;25.43;;;;;;;7.79;100.00;101843.11;3688309;79;27910;-90
2022/11/13 16:14:45;;;;;;;69.93;30.13;;;;;;;7.73;100.00;101845.19;3685715;78;98476;-90
2022/11/13 16:19:50;;;;;;;60.07;27.00;;;;;;;7.70;100.00;101850.52;3696453;79;29174;-90
2022/11/13 16:24:52;;;;;;;61.33;26.75;;;;;;;7.69;100.00;101845.59;3693208;78;98376;-91
2022/11/13 16:29:53;;;;;;;63.27;27.93;;;;;;;7.69;100.00;101840.69;3696887;80;26349;-90
2022/11/13 16:34:54;;;;;;;56.63;27.30;;;;;;;7.69;100.00;101844.22;3687396;78;98556;-93
2022/11/13 16:39:55;;;;;;;61.73;28.10;;;;;;;7.68;100.00;101843.20;3696152;78;35461;-90
2022/11/13 16:44:56;;;;;;;53.77;25.80;;;;;;;7.68;100.00;101851.42;3686041;79;98772;-91
2022/11/13 16:49:59;;;;;;;48.33;22.37;;;;;;;7.70;100.00;101849.94;3684543;79;35834;-91
2022/11/13 16:55:01;;;;;;;51.13;25.50;;;;;;;7.63;100.00;101837.88;3639417;80;98901;-91
2022/11/13 17:00:10;;;;;;;48.77;21.10;;;;;;;7.61;100.00;101838.74;3662873;80;36486;-90
2022/11/13 17:05:16;;;;;;;95.90;44.97;;;;;;;7.63;100.00;101831.03;3686964;80;98841;-94
2022/11/13 17:10:20;;;;;;;64.65;31.77;;;;;;;7.61;100.00;101821.75;3685018;80;98676;-91
2022/11/13 17:15:21;;;;;;;64.03;30.23;;;;;;;7.61;100.00;101825.05;3600273;82;31729;-91
2022/11/13 17:20:21;;;;;;;47.47;23.43;;;;;;;7.61;100.00;101814.91;3711402;79;99028;-91
2022/11/13 17:25:25;;;;;;;54.60;26.13;;;;;;;7.55;100.00;101823.05;3719058;79;35671;-91
2022/11/13 17:30:25;;;;;;;69.97;33.63;;;;;;;7.57;100.00;101813.11;3715046;79;98947;-92
2022/11/13 17:35:26;;;;;;;54.63;26.37;;;;;;;7.59;100.00;101808.13;3718846;79;27182;-92
2022/11/13 17:40:27;;;;;;;50.53;24.57;;;;;;;7.57;100.00;101812.56;3714678;79;98804;-93
2022/11/13 17:45:28;;;;;;;41.57;20.97;;;;;;;7.58;100.00;101821.59;3723478;79;34779;-93
2022/11/13 17:50:30;;;;;;;45.37;22.60;;;;;;;7.57;100.00;101814.48;3714162;79;98723;-94
2022/11/13 17:55:31;;;;;;;44.90;21.00;;;;;;;7.60;100.00;101814.67;3723121;79;26318;-92
2022/11/13 18:00:32;;;;;;;39.05;19.27;;;;;;;7.60;100.00;101808.38;3709984;79;99153;-93
2022/11/13 18:05:35;;;;;;;39.77;19.23;;;;;;;7.56;100.00;101793.70;3725686;79;34799;-93
2022/11/13 18:10:39;;;;;;;39.80;19.17;;;;;;;7.52;100.00;101799.02;3715494;79;98797;-92
2022/11/13 18:15:40;;;;;;;41.13;18.23;;;;;;;7.52;100.00;101797.66;3723822;79;31575;-91
2022/11/13 18:20:41;;;;;;;41.83;19.20;;;;;;;7.54;100.00;101792.67;3697100;79;98983;-92
2022/11/13 18:25:42;;;;;;;39.40;19.07;;;;;;;7.53;100.00;101798.47;3704551;79;26577;-93
2022/11/13 18:30:43;;;;;;;37.88;19.77;;;;;;;7.53;100.00;101802.58;3699333;78;98688;-90
2022/11/13 18:35:44;;;;;;;43.33;21.70;;;;;;;7.51;100.00;101803.45;3694687;79;34975;-91
2022/11/13 18:40:45;;;;;;;50.85;23.70;;;;;;;7.47;100.00;101807.41;3691564;79;99030;-91
2022/11/13 18:45:59;;;;;;;43.67;22.27;;;;;;;7.46;100.00;101801.69;3705558;79;36073;-90
2022/11/13 18:51:08;;;;;;;58.08;27.22;;;;;;;7.44;100.00;101803.14;3697363;79;98694;-92
2022/11/13 18:56:19;;;;;;;54.48;27.20;;;;;;;7.42;100.00;101806.77;3698778;79;32092;-90
2022/11/13 19:01:27;;;;;;;53.38;26.30;;;;;;;7.36;100.00;101795.16;3697962;79;99069;-91
2022/11/13 19:06:28;;;;;;;56.18;28.17;;;;;;;7.35;100.00;101795.47;3680780;79;29798;-89
2022/11/13 19:11:34;;;;;;;62.17;29.03;;;;;;;7.34;100.00;101800.16;3681552;79;98645;-91
2022/11/13 19:16:39;;;;;;;61.25;27.67;;;;;;;7.30;100.00;101795.08;3604713;80;32492;-92
2022/11/13 19:21:40;;;;;;;60.20;28.77;;;;;;;7.25;100.00;101788.39;3608271;80;98942;-92
2022/11/13 19:26:42;;;;;;;66.03;28.70;;;;;;;7.19;100.00;101783.42;3617057;80;26452;-91
2022/11/13 19:36:50;;;;;;;72.57;32.93;;;;;;;7.16;100.00;101774.46;3533919;81;26163;-85
2022/11/13 19:41:49;;;;;;;62.60;27.35;;;;;;;7.15;100.00;101778.33;3512297;80;99220;-86
2022/11/13 19:46:50;;;;;;;76.07;31.00;;;;;;;7.11;100.00;101768.59;3478907;83;26283;-85
2022/11/13 19:51:53;;;;;;;77.10;33.53;;;;;;;7.11;100.00;101777.36;3522370;81;99190;-87
2022/11/13 19:56:54;;;;;;;75.17;34.88;;;;;;;7.05;100.00;101780.02;3523868;82;29767;-86
2022/11/13 20:01:55;;;;;;;84.63;34.87;;;;;;;7.06;100.00;101773.41;3559142;80;99016;-88
2022/11/13 20:06:55;;;;;;;91.83;42.60;;;;;;;6.96;100.00;101770.42;3564408;81;34876;-87
2022/11/13 20:11:56;;;;;;;78.27;35.90;;;;;;;6.83;100.00;101769.20;3554464;80;98931;-87
2022/11/13 20:16:57;;;;;;;88.03;37.10;;;;;;;6.80;100.00;101766.53;3568776;80;34869;-87
2022/11/13 20:21:58;;;;;;;86.27;35.23;;;;;;;6.77;100.00;101770.47;3556104;80;98954;-87
2022/11/13 20:26:59;;;;;;;89.90;36.53;;;;;;;6.74;100.00;101769.18;3563388;81;36154;-87
2022/11/13 20:32:00;;;;;;;82.08;34.50;;;;;;;6.73;100.00;101774.41;3556950;80;98752;-87
2022/11/13 20:37:01;;;;;;;133.37;73.37;;;;;;;6.74;100.00;101776.02;3562613;81;34922;-87
2022/11/13 20:42:02;;;;;;;81.27;35.57;;;;;;;6.80;100.00;101768.45;3553644;80;99119;-87
2022/11/13 20:47:03;;;;;;;87.07;36.07;;;;;;;6.83;100.00;101765.09;3562482;81;33909;-87
2022/11/13 20:52:05;;;;;;;85.87;37.00;;;;;;;6.88;100.00;101766.31;3558924;80;98647;-87
2022/11/13 20:57:06;;;;;;;76.33;33.83;;;;;;;6.91;100.00;101762.36;3560152;81;32070;-88
2022/11/13 21:02:08;;;;;;;79.70;35.43;;;;;;;6.88;100.00;101757.52;3554207;80;98654;-89
2022/11/13 21:07:09;;;;;;;79.20;33.80;;;;;;;6.83;100.00;101769.98;3562887;81;25869;-89
2022/11/13 21:12:10;;;;;;;76.23;34.37;;;;;;;6.83;100.00;101768.61;3517547;81;98986;-87
2022/11/13 21:17:10;;;;;;;84.03;36.47;;;;;;;6.81;100.00;101756.41;3562509;80;32506;-88
2022/11/13 21:22:11;;;;;;;86.87;36.70;;;;;;;6.86;100.00;101757.05;3556201;80;98745;-88
2022/11/13 21:27:12;;;;;;;74.07;30.70;;;;;;;6.89;100.00;101758.33;3566894;81;32514;-87
2022/11/13 21:32:12;;;;;;;81.47;34.37;;;;;;;6.90;100.00;101753.91;3556835;80;98739;-88
2022/11/13 21:37:13;;;;;;;84.45;32.93;;;;;;;6.89;100.00;101751.49;3563779;81;33581;-88
2022/11/13 21:42:14;;;;;;;74.30;32.33;;;;;;;6.90;100.00;101753.09;3551146;80;98693;-88
2022/11/13 21:47:15;;;;;;;80.33;31.77;;;;;;;6.93;100.00;101739.58;3562489;81;25926;-86
2022/11/13 21:52:16;;;;;;;72.80;32.40;;;;;;;6.93;100.00;101734.68;3559795;80;99032;-88
2022/11/13 21:57:17;;;;;;;76.77;30.73;;;;;;;6.89;100.00;101726.86;3565373;81;26299;-89
2022/11/13 22:02:18;;;;;;;78.93;34.93;;;;;;;6.87;100.00;101712.70;3553624;80;98968;-90
2022/11/13 22:07:19;;;;;;;75.80;31.57;;;;;;;6.87;100.00;101722.28;3567994;81;25904;-88
2022/11/13 22:12:20;;;;;;;80.50;32.00;;;;;;;6.85;100.00;101719.86;3559597;80;98978;-87
2022/11/13 22:17:21;;;;;;;74.77;33.60;;;;;;;6.85;100.00;101714.39;3565547;81;25871;-87
2022/11/13 22:22:22;;;;;;;73.53;31.13;;;;;;;6.83;100.00;101704.31;3521104;80;99111;-88
2022/11/13 22:27:23;;;;;;;77.53;31.62;;;;;;;6.82;100.00;101693.12;3559369;81;26583;-87
2022/11/13 22:32:23;;;;;;;76.40;32.60;;;;;;;6.79;100.00;101682.02;3559010;80;98665;-87
2022/11/13 22:37:24;;;;;;;79.17;31.50;;;;;;;6.78;100.00;101681.78;3569336;80;33256;-87
2022/11/13 22:42:25;;;;;;;76.43;33.93;;;;;;;6.70;100.00;101682.59;3561780;80;98950;-88
2022/11/13 22:47:26;;;;;;;85.90;35.20;;;;;;;6.64;100.00;101685.22;3567119;81;33222;-88
2022/11/13 22:52:27;;;;;;;83.13;33.73;;;;;;;6.62;100.00;101676.54;3560293;80;99187;-88
2022/11/13 22:57:27;;;;;;;78.97;33.87;;;;;;;6.57;100.00;101671.22;3566854;81;33257;-88
2022/11/13 23:02:28;;;;;;;75.83;31.40;;;;;;;6.56;100.00;101664.97;3562030;80;98987;-87
2022/11/13 23:07:29;;;;;;;85.60;32.93;;;;;;;6.57;100.00;101667.12;3567453;81;31340;-88
2022/11/13 23:12:30;;;;;;;81.23;34.40;;;;;;;6.55;100.00;101655.13;3560957;80;99492;-89